createdAt,value
2018-02-01T00:00:04.929Z,998.61
2018-02-01T00:05:03.533Z,998.63
2018-02-01T00:10:02.734Z,998.6
2018-02-01T00:15:03.310Z,998.54
2018-02-01T00:20:02.915Z,998.52
2018-02-01T00:25:03.371Z,998.5
2018-02-01T00:30:02.924Z,998.46
2018-02-01T00:35:03.393Z,998.39
2018-02-01T00:40:03.035Z,998.36
2018-02-01T00:45:03.634Z,998.42
2018-02-01T00:50:03.122Z,998.39
2018-02-01T00:55:02.740Z,998.4
2018-02-01T01:00:03.058Z,998.4
2018-02-01T01:05:02.916Z,998.44
2018-02-01T01:10:03.536Z,998.49
2018-02-01T01:15:03.138Z,998.51
2018-02-01T01:20:02.799Z,998.46
2018-02-01T01:25:03.304Z,998.43
2018-02-01T01:30:02.925Z,998.37
2018-02-01T01:35:03.568Z,998.32
2018-02-01T01:40:03.160Z,998.26
2018-02-01T01:45:02.722Z,998.19
2018-02-01T01:50:03.288Z,998.19
2018-02-01T01:55:02.952Z,998.23
2018-02-01T02:00:03.439Z,998.29
2018-02-01T02:05:03.024Z,998.28
2018-02-01T02:10:03.548Z,998.22
2018-02-01T02:15:03.171Z,998.17
2018-02-01T02:20:02.853Z,998.07
2018-02-01T02:25:03.438Z,998.01
2018-02-01T02:30:02.913Z,998.05
2018-02-01T02:35:03.423Z,998.03
2018-02-01T02:40:03.117Z,997.96
2018-02-01T02:45:02.660Z,997.88
2018-02-01T02:50:03.422Z,997.9
2018-02-01T02:55:02.850Z,997.82
2018-02-01T03:00:03.504Z,997.83
2018-02-01T03:05:03.014Z,997.88
2018-02-01T03:10:03.540Z,997.94
2018-02-01T03:15:03.092Z,997.94
2018-02-01T03:20:02.737Z,997.88
2018-02-01T03:25:03.203Z,997.89
2018-02-01T03:30:02.845Z,997.84
2018-02-01T03:35:03.460Z,997.83
2018-02-01T03:40:02.934Z,997.86
2018-02-01T03:45:03.512Z,997.85
2018-02-01T03:50:02.967Z,997.99
2018-02-01T03:55:03.577Z,998
2018-02-01T04:00:03.028Z,997.97
2018-02-01T04:05:02.709Z,997.95
2018-02-01T04:10:03.236Z,997.89
2018-02-01T04:15:03.740Z,997.88
2018-02-01T04:20:03.297Z,997.71
2018-02-01T04:25:02.870Z,997.72
2018-02-01T04:30:03.366Z,997.72
2018-02-01T04:35:02.931Z,997.79
2018-02-01T04:40:03.603Z,997.63
2018-02-01T04:45:03.021Z,997.77
2018-02-01T04:50:03.687Z,997.72
2018-02-01T04:55:03.126Z,997.7
2018-02-01T05:00:03.633Z,997.86
2018-02-01T05:05:03.199Z,997.84
2018-02-01T05:10:02.692Z,997.82
2018-02-01T05:15:03.108Z,997.69
2018-02-01T05:20:02.732Z,997.77
2018-02-01T05:25:03.250Z,997.72
2018-02-01T05:30:03.200Z,997.8
2018-02-01T05:35:03.646Z,997.8
2018-02-01T05:40:03.266Z,997.78
2018-02-01T05:45:02.892Z,997.65
2018-02-01T05:50:03.502Z,997.72
2018-02-01T05:55:03.053Z,997.66
2018-02-01T06:00:03.530Z,997.7
2018-02-01T06:05:03.024Z,997.8
2018-02-01T06:10:03.547Z,997.65
2018-02-01T06:15:03.061Z,997.55
2018-02-01T06:20:03.579Z,997.63
2018-02-01T06:25:03.116Z,997.67
2018-02-01T06:30:02.703Z,997.62
2018-02-01T06:35:03.286Z,997.59
2018-02-01T06:40:02.947Z,997.66
2018-02-01T06:45:03.371Z,997.72
2018-02-01T06:50:02.965Z,997.84
2018-02-01T06:55:03.496Z,997.82
2018-02-01T07:00:03.248Z,997.91
2018-02-01T07:05:02.782Z,997.77
2018-02-01T07:10:03.354Z,997.74
2018-02-01T07:15:02.966Z,997.75
2018-02-01T07:20:03.416Z,997.77
2018-02-01T07:25:02.858Z,997.78
2018-02-01T07:30:03.362Z,997.89
2018-02-01T07:35:02.931Z,997.93
2018-02-01T07:40:03.516Z,998
2018-02-01T07:45:03.179Z,998.06
2018-02-01T07:50:03.659Z,997.97
2018-02-01T07:55:03.132Z,998.11
2018-02-01T08:00:03.637Z,998.13
2018-02-01T08:05:03.386Z,998.17
2018-02-01T08:10:02.960Z,997.99
2018-02-01T08:15:03.593Z,998.04
2018-02-01T08:20:03.093Z,998.01
2018-02-01T08:25:03.588Z,998.16
2018-02-01T08:30:03.366Z,998.04
2018-02-01T08:35:02.992Z,998.1
2018-02-01T08:40:03.725Z,998.03
2018-02-01T08:45:03.438Z,997.98
2018-02-01T08:50:02.987Z,997.93
2018-02-01T08:55:03.650Z,997.97
2018-02-01T09:00:03.173Z,998.01
2018-02-01T09:05:03.642Z,998
2018-02-01T09:10:03.341Z,997.98
2018-02-01T09:15:02.781Z,998.21
2018-02-01T09:20:03.267Z,998
2018-02-01T09:25:02.838Z,998.12
2018-02-01T09:30:03.326Z,998.01
2018-02-01T09:35:03.058Z,998.2
2018-02-01T09:40:03.567Z,998.12
2018-02-01T09:45:03.223Z,997.99
2018-02-01T09:50:02.882Z,998.17
2018-02-01T09:55:03.428Z,998.18
2018-02-01T10:00:02.957Z,998.13
2018-02-01T10:05:03.672Z,998.12
2018-02-01T10:10:03.421Z,998.25
2018-02-01T10:15:02.863Z,998.25
2018-02-01T10:20:03.472Z,998.39
2018-02-01T10:25:03.026Z,998.23
2018-02-01T10:30:03.534Z,998.18
2018-02-01T10:35:03.100Z,998.42
2018-02-01T10:40:02.764Z,998.32
2018-02-01T10:45:03.223Z,998.43
2018-02-01T10:50:03.673Z,998.18
2018-02-01T10:55:03.129Z,998.26
2018-02-01T11:00:04.229Z,998.31
2018-02-01T11:05:02.783Z,998.17
2018-02-01T11:10:03.559Z,998.38
2018-02-01T11:15:03.092Z,998.27
2018-02-01T11:20:03.636Z,998.16
2018-02-01T11:25:03.143Z,998.07
2018-02-01T11:30:03.703Z,998.18
2018-02-01T11:35:03.410Z,998.14
2018-02-01T11:40:03.029Z,998.22
2018-02-01T11:45:03.585Z,998.18
2018-02-01T11:50:03.146Z,998.1
2018-02-01T11:55:03.681Z,998.12
2018-02-01T12:00:03.318Z,997.98
2018-02-01T12:05:02.866Z,997.93
2018-02-01T12:10:03.614Z,997.84
2018-02-01T12:15:03.308Z,997.69
2018-02-01T12:20:02.811Z,997.73
2018-02-01T12:25:03.343Z,997.69
2018-02-01T12:30:02.905Z,997.63
2018-02-01T12:35:02.712Z,997.64
2018-02-01T12:40:03.217Z,997.64
2018-02-01T12:45:02.855Z,997.52
2018-02-01T12:50:03.410Z,997.62
2018-02-01T12:55:03.002Z,997.54
2018-02-01T13:00:03.504Z,997.49
2018-02-01T13:05:03.108Z,997.54
2018-02-01T13:10:03.626Z,997.59
2018-02-01T13:15:03.257Z,997.59
2018-02-01T13:20:02.744Z,997.63
2018-02-01T13:25:03.392Z,997.62
2018-02-01T13:30:03.004Z,997.66
2018-02-01T13:35:03.458Z,997.78
2018-02-01T13:40:03.037Z,997.79
2018-02-01T13:45:02.695Z,997.71
2018-02-01T13:50:03.370Z,997.71
2018-02-01T13:55:02.969Z,997.71
2018-02-01T14:00:03.680Z,997.88
2018-02-01T14:05:03.178Z,997.84
2018-02-01T14:10:02.915Z,997.79
2018-02-01T14:15:03.674Z,998.04
2018-02-01T14:20:03.226Z,997.96
2018-02-01T14:25:02.925Z,997.95
2018-02-01T14:30:03.661Z,998
2018-02-01T14:35:03.397Z,997.95
2018-02-01T14:40:03.010Z,998.07
2018-02-01T14:45:03.575Z,998.15
2018-02-01T14:50:03.404Z,998.29
2018-02-01T14:55:03.122Z,998.32
2018-02-01T15:00:03.657Z,998.24
2018-02-01T15:05:03.186Z,998.28
2018-02-01T15:10:02.907Z,998.37
2018-02-01T15:15:03.366Z,998.47
2018-02-01T15:20:02.852Z,998.48
2018-02-01T15:25:03.499Z,998.52
2018-02-01T15:30:03.039Z,998.59
2018-02-01T15:35:03.690Z,998.61
2018-02-01T15:40:03.401Z,998.65
2018-02-01T15:45:03.236Z,998.7
2018-02-01T15:50:02.707Z,998.69
2018-02-01T15:55:03.276Z,998.58
2018-02-01T16:00:02.762Z,998.87
2018-02-01T16:05:03.233Z,998.84
2018-02-01T16:10:02.786Z,998.88
2018-02-01T16:15:03.193Z,998.89
2018-02-01T16:20:03.672Z,998.84
2018-02-01T16:25:03.240Z,998.84
2018-02-01T16:30:02.736Z,998.89
2018-02-01T16:35:03.180Z,998.99
2018-02-01T16:40:02.824Z,998.97
2018-02-01T16:45:03.275Z,999.08
2018-02-01T16:50:02.908Z,999.11
2018-02-01T16:55:03.547Z,999.17
2018-02-01T17:00:03.103Z,999.18
2018-02-01T17:05:03.610Z,999.18
2018-02-01T17:10:03.340Z,999.31
2018-02-01T17:15:02.858Z,999.36
2018-02-01T17:20:03.351Z,999.37
2018-02-01T17:25:02.921Z,999.46
2018-02-01T17:30:03.420Z,999.49
2018-02-01T17:35:03.039Z,999.43
2018-02-01T17:40:02.772Z,999.45
2018-02-01T17:45:03.212Z,999.5
2018-02-01T17:50:02.760Z,999.63
2018-02-01T17:55:03.372Z,999.63
2018-02-01T18:00:02.777Z,999.66
2018-02-01T18:05:03.366Z,999.7
2018-02-01T18:10:02.996Z,999.72
2018-02-01T18:15:03.640Z,999.72
2018-02-01T18:20:03.307Z,999.76
2018-02-01T18:25:02.910Z,999.8
2018-02-01T18:30:03.377Z,999.78
2018-02-01T18:35:02.814Z,999.8
2018-02-01T18:40:03.441Z,999.91
2018-02-01T18:45:03.078Z,999.96
2018-02-01T18:50:03.607Z,999.89
2018-02-01T18:55:03.096Z,999.89
2018-02-01T19:00:03.528Z,999.91
2018-02-01T19:05:03.238Z,999.98
2018-02-01T19:10:02.733Z,999.88
2018-02-01T19:15:03.307Z,999.99
2018-02-01T19:20:02.876Z,999.85
2018-02-01T19:25:03.367Z,999.89
2018-02-01T19:30:03.017Z,999.96
2018-02-01T19:35:02.687Z,999.99
2018-02-01T19:40:03.287Z,1000.03
2018-02-01T19:45:02.864Z,999.95
2018-02-01T19:50:03.388Z,999.88
2018-02-01T19:55:02.973Z,999.93
2018-02-01T20:00:03.569Z,999.89
2018-02-01T20:05:03.340Z,1000
2018-02-01T20:10:03.015Z,1000.05
2018-02-01T20:15:03.726Z,999.96
2018-02-01T20:20:03.212Z,999.85
2018-02-01T20:25:02.980Z,999.85
2018-02-01T20:30:03.606Z,999.87
2018-02-01T20:35:03.092Z,999.8
2018-02-01T20:40:03.963Z,999.89
2018-02-01T20:45:03.466Z,999.91
2018-02-01T20:50:03.200Z,999.83
2018-02-01T20:55:03.638Z,999.89
2018-02-01T21:00:03.156Z,999.87
2018-02-01T21:05:02.762Z,999.92
2018-02-01T21:10:03.346Z,999.85
2018-02-01T21:15:02.916Z,999.9
2018-02-01T21:20:03.387Z,999.96
2018-02-01T21:25:02.944Z,999.95
2018-02-01T21:30:03.481Z,999.92
2018-02-01T21:35:03.345Z,1000.02
2018-02-01T21:40:03.144Z,999.91
2018-02-01T21:45:03.578Z,1000.04
2018-02-01T21:50:03.253Z,1000.06
2018-02-01T21:55:02.786Z,1000.09
2018-02-01T22:00:03.458Z,1000.05
2018-02-01T22:05:02.937Z,1000.04
2018-02-01T22:10:03.540Z,1000.04
2018-02-01T22:15:03.014Z,999.98
2018-02-01T22:20:03.490Z,999.96
2018-02-01T22:25:02.966Z,999.81
2018-02-01T22:30:03.533Z,999.96
2018-02-01T22:35:03.199Z,999.92
2018-02-01T22:40:02.826Z,999.89
2018-02-01T22:45:03.354Z,999.78
2018-02-01T22:50:02.879Z,999.75
2018-02-01T22:55:03.464Z,999.77
2018-02-01T23:00:03.060Z,999.73
2018-02-01T23:05:03.626Z,999.7
2018-02-01T23:10:03.400Z,999.81
2018-02-01T23:15:02.857Z,999.64
2018-02-01T23:20:03.694Z,999.66
2018-02-01T23:25:03.142Z,999.59
2018-02-01T23:30:03.592Z,999.51
2018-02-01T23:35:03.242Z,999.5
2018-02-01T23:40:02.733Z,999.45
2018-02-01T23:45:03.323Z,999.48
2018-02-01T23:50:02.916Z,999.43
2018-02-01T23:55:03.590Z,999.46
